Irishtown, Illinois
Current Conditions -  °F | °C
As of 8:55 PM on Friday 19 Dec 2014 (Local Time) from KENL Reporting Station
Overcast Overcast  
Wind Chill:   Ceiling: 6500
Heat Index:   Visibility: 10mi
Dew Point: -4°   Wind: 3mph
Humidity: 72%   Direction: 80°E
Pressure: 30.26"   Gusts: NA
Location:  38.7527°N, 89.3215°W
Report Text: KENL 200255Z AUTO 08003KT 10SM OVC065 01/M04 A3026 RMK AO2 T00061039
Loading
Personal Weather Stations






























Interactive Weather Map New forecast layout! Learn more

10-Day Weather Forecast

Advertisements
Track Severe Weather on mobile